createdAt,value
2024-02-04T00:02:32.159Z,12.93
2024-02-04T00:05:03.061Z,14.30
2024-02-04T00:07:33.235Z,11.27
2024-02-04T00:10:04.308Z,12.30
2024-02-04T00:12:34.436Z,13.50
2024-02-04T00:15:05.730Z,22.07
2024-02-04T00:17:38.671Z,12.43
2024-02-04T00:20:10.783Z,17.27
2024-02-04T00:22:41.057Z,13.90
2024-02-04T00:25:13.672Z,19.30
2024-02-04T00:27:43.981Z,18.50
2024-02-04T00:30:14.841Z,10.57
2024-02-04T00:32:47.628Z,22.30
2024-02-04T00:35:17.738Z,13.33
2024-02-04T00:37:48.697Z,15.33
2024-02-04T00:40:18.869Z,18.17
2024-02-04T00:42:49.021Z,11.90
2024-02-04T00:45:19.212Z,15.70
2024-02-04T00:47:52.021Z,19.63
2024-02-04T00:50:22.259Z,18.20
2024-02-04T00:52:54.611Z,16.93
2024-02-04T00:55:24.958Z,18.47
2024-02-04T00:57:56.989Z,19.40
2024-02-04T01:00:27.261Z,11.47
2024-02-04T01:03:00.322Z,16.37
2024-02-04T01:05:30.549Z,14.17
2024-02-04T01:08:01.968Z,12.37
2024-02-04T01:10:32.069Z,19.60
2024-02-04T01:13:02.195Z,19.33
2024-02-04T01:15:32.396Z,18.50
2024-02-04T01:18:05.137Z,14.67
2024-02-04T01:20:35.312Z,14.30
2024-02-04T01:23:07.237Z,10.90
2024-02-04T01:25:39.110Z,18.20
2024-02-04T01:28:10.922Z,13.63
2024-02-04T01:30:41.088Z,17.33
2024-02-04T01:33:14.076Z,13.27
2024-02-04T01:35:44.215Z,12.10
2024-02-04T01:38:14.290Z,16.50
2024-02-04T01:40:44.357Z,20.00
2024-02-04T01:43:14.487Z,20.60
2024-02-04T01:45:44.620Z,13.60
2024-02-04T01:48:18.981Z,16.67
2024-02-04T01:50:49.977Z,15.47
2024-02-04T01:53:21.674Z,20.80
2024-02-04T01:55:52.779Z,11.37
2024-02-04T01:58:22.887Z,17.60
2024-02-04T02:00:54.260Z,16.67
2024-02-04T02:03:28.647Z,18.03
2024-02-04T02:05:59.775Z,11.67
2024-02-04T02:08:30.197Z,18.13
2024-02-04T02:11:07.692Z,12.73
2024-02-04T02:13:40.091Z,25.57
2024-02-04T02:16:17.076Z,16.97
2024-02-04T02:18:54.061Z,23.73
2024-02-04T02:21:42.770Z,12.37
2024-02-04T02:24:18.085Z,16.03
2024-02-04T02:26:51.904Z,15.60
2024-02-04T02:29:21.972Z,16.60
2024-02-04T02:31:52.060Z,14.50
2024-02-04T02:34:30.654Z,20.13
2024-02-04T02:37:19.132Z,17.20
2024-02-04T02:39:57.483Z,16.07
2024-02-04T02:42:30.856Z,22.00
2024-02-04T02:45:01.571Z,22.73
2024-02-04T02:47:33.792Z,11.63
2024-02-04T02:50:04.824Z,16.97
2024-02-04T02:52:35.177Z,17.30
2024-02-04T02:55:05.332Z,24.20
2024-02-04T02:57:38.766Z,16.43
2024-02-04T03:00:10.632Z,24.50
2024-02-04T03:02:40.774Z,19.93
2024-02-04T03:05:13.091Z,15.80
2024-02-04T03:07:43.311Z,23.13
2024-02-04T03:10:14.058Z,18.10
2024-02-04T03:12:46.793Z,19.90
2024-02-04T03:15:17.102Z,20.17
2024-02-04T03:17:47.669Z,17.17
2024-02-04T03:20:18.075Z,20.03
2024-02-04T03:22:49.521Z,23.77
2024-02-04T03:25:19.592Z,16.60
2024-02-04T03:27:54.080Z,24.37
2024-02-04T03:30:24.271Z,20.73
2024-02-04T03:32:54.582Z,19.97
2024-02-04T03:35:24.818Z,19.00
2024-02-04T03:37:54.961Z,24.23
2024-02-04T03:40:26.091Z,20.73
2024-02-04T03:42:58.942Z,29.37
2024-02-04T03:45:29.147Z,24.30
2024-02-04T03:47:59.498Z,23.13
2024-02-04T03:50:29.724Z,21.33
2024-02-04T03:52:59.831Z,20.33
2024-02-04T03:55:29.909Z,25.80
2024-02-04T03:58:03.442Z,23.03
2024-02-04T04:00:33.650Z,27.97
2024-02-04T04:03:04.089Z,23.97
2024-02-04T04:05:34.398Z,25.60
2024-02-04T04:08:04.593Z,25.40
2024-02-04T04:10:34.628Z,24.47
2024-02-04T04:13:07.757Z,25.83
2024-02-04T04:15:37.837Z,24.00
2024-02-04T04:18:08.615Z,21.53
2024-02-04T04:20:38.738Z,22.43
2024-02-04T04:23:08.895Z,19.23
2024-02-04T04:25:39.009Z,19.43
2024-02-04T04:28:11.871Z,22.37
2024-02-04T04:30:42.014Z,25.10
2024-02-04T04:33:13.632Z,18.33
2024-02-04T04:35:43.846Z,16.37
2024-02-04T04:38:13.942Z,25.40
2024-02-04T04:40:44.117Z,17.87
2024-02-04T04:43:16.780Z,17.60
2024-02-04T04:45:46.862Z,11.80
2024-02-04T04:48:17.465Z,14.63
2024-02-04T04:50:48.062Z,12.30
2024-02-04T04:53:18.201Z,10.53
2024-02-04T04:55:48.259Z,12.47
2024-02-04T04:58:20.939Z,10.47
2024-02-04T05:00:51.147Z,9.97
2024-02-04T05:03:21.340Z,11.10
2024-02-04T05:05:51.403Z,11.70
2024-02-04T05:08:21.562Z,11.80
2024-02-04T05:10:51.619Z,13.93
2024-02-04T05:13:24.593Z,9.83
2024-02-04T05:15:54.738Z,16.83
2024-02-04T05:18:28.263Z,11.67
2024-02-04T05:20:58.520Z,12.63
2024-02-04T05:23:28.660Z,11.67
2024-02-04T05:25:58.761Z,12.33
2024-02-04T05:28:31.497Z,18.97
2024-02-04T05:31:01.605Z,7.13
2024-02-04T05:33:31.778Z,10.70
2024-02-04T05:36:01.872Z,13.80
2024-02-04T05:38:32.003Z,8.97
2024-02-04T05:41:02.063Z,7.50
2024-02-04T05:43:34.792Z,14.73
2024-02-04T05:46:04.986Z,13.00
2024-02-04T05:48:35.516Z,9.60
2024-02-04T05:51:05.788Z,12.53
2024-02-04T05:53:35.857Z,6.60
2024-02-04T05:56:05.967Z,10.13
2024-02-04T05:58:39.208Z,7.43
2024-02-04T06:01:09.416Z,6.50
2024-02-04T06:03:39.628Z,11.40
2024-02-04T06:06:10.144Z,11.10
2024-02-04T06:08:40.348Z,11.83
2024-02-04T06:11:13.901Z,9.47
2024-02-04T06:13:48.491Z,11.87
2024-02-04T06:16:18.783Z,5.17
2024-02-04T06:18:48.968Z,7.40
2024-02-04T06:21:19.209Z,8.60
2024-02-04T06:23:49.273Z,8.60
2024-02-04T06:26:19.407Z,11.73
2024-02-04T06:28:52.654Z,13.10
2024-02-04T06:31:22.936Z,10.00
2024-02-04T06:33:53.123Z,8.37
2024-02-04T06:36:23.283Z,8.27
2024-02-04T06:38:53.460Z,14.73
2024-02-04T06:41:23.564Z,5.60
2024-02-04T06:43:56.341Z,5.37
2024-02-04T06:46:29.955Z,8.07
2024-02-04T06:49:00.632Z,3.90
2024-02-04T06:51:30.808Z,9.90
2024-02-04T06:54:02.131Z,4.90
2024-02-04T06:56:32.217Z,7.30
2024-02-04T06:59:04.913Z,6.23
2024-02-04T07:01:35.493Z,7.20
2024-02-04T07:04:05.838Z,5.47
2024-02-04T07:06:36.120Z,4.70
2024-02-04T07:09:06.789Z,5.97
2024-02-04T07:11:36.891Z,3.73
2024-02-04T07:14:09.690Z,4.17
2024-02-04T07:16:39.759Z,10.23
2024-02-04T07:19:09.891Z,10.20
2024-02-04T07:21:40.094Z,7.67
2024-02-04T07:24:10.210Z,4.90
2024-02-04T07:26:40.271Z,11.27
2024-02-04T07:29:12.929Z,4.00
2024-02-04T07:31:43.084Z,5.63
2024-02-04T07:34:13.229Z,3.40
2024-02-04T07:36:45.101Z,3.80
2024-02-04T07:39:15.566Z,5.67
2024-02-04T07:41:45.645Z,5.20
2024-02-04T07:44:18.302Z,4.03
2024-02-04T07:46:48.372Z,4.57
2024-02-04T07:49:18.573Z,5.70
2024-02-04T07:51:48.778Z,10.10
2024-02-04T07:54:18.844Z,16.23
2024-02-04T07:56:49.105Z,3.43
2024-02-04T07:59:21.853Z,4.77
2024-02-04T08:01:51.928Z,8.10
2024-02-04T08:04:22.134Z,8.03
2024-02-04T08:06:54.209Z,11.80
2024-02-04T08:09:24.548Z,5.90
2024-02-04T08:11:57.088Z,7.03
2024-02-04T08:14:30.498Z,10.53
2024-02-04T08:17:00.534Z,7.93
2024-02-04T08:19:30.692Z,8.27
2024-02-04T08:22:02.037Z,6.40
2024-02-04T08:24:33.418Z,10.50
2024-02-04T08:27:04.936Z,10.43
2024-02-04T08:29:37.707Z,3.97
2024-02-04T08:32:08.569Z,14.47
2024-02-04T08:34:38.837Z,11.10
2024-02-04T08:37:09.197Z,5.23
2024-02-04T08:39:39.536Z,6.70
2024-02-04T08:42:09.814Z,7.53
2024-02-04T08:44:42.696Z,7.33
2024-02-04T08:47:15.782Z,10.07
2024-02-04T08:49:46.035Z,11.50
2024-02-04T08:52:16.374Z,13.77
2024-02-04T08:54:46.574Z,16.00
2024-02-04T08:57:18.288Z,15.87
2024-02-04T08:59:51.113Z,13.40
2024-02-04T09:02:21.302Z,8.07
2024-02-04T09:04:51.446Z,5.97
2024-02-04T09:07:21.678Z,14.33
2024-02-04T09:09:51.943Z,11.73
2024-02-04T09:12:22.068Z,13.70
2024-02-04T09:14:54.810Z,17.20
2024-02-04T09:17:24.992Z,7.07
2024-02-04T09:19:55.359Z,10.53
2024-02-04T09:22:25.559Z,19.60
2024-02-04T09:24:56.157Z,12.83
2024-02-04T09:27:26.937Z,8.13
2024-02-04T09:30:00.122Z,7.47
2024-02-04T09:32:30.466Z,11.37
2024-02-04T09:35:00.846Z,11.37
2024-02-04T09:37:31.098Z,5.43
2024-02-04T09:40:01.371Z,8.87
2024-02-04T09:42:32.723Z,14.37
2024-02-04T09:45:06.171Z,8.53
2024-02-04T09:47:38.764Z,9.10
2024-02-04T09:50:10.311Z,18.80
2024-02-04T09:52:44.698Z,19.70
2024-02-04T09:55:19.546Z,11.30
2024-02-04T09:57:49.796Z,10.10
2024-02-04T10:00:23.712Z,13.43
2024-02-04T10:02:53.973Z,14.73
2024-02-04T10:05:24.333Z,13.87
2024-02-04T10:07:54.699Z,11.77
2024-02-04T10:10:24.985Z,16.40
2024-02-04T10:12:55.408Z,8.53
2024-02-04T10:15:28.180Z,14.57
2024-02-04T10:17:58.826Z,6.20
2024-02-04T10:20:28.967Z,5.40
2024-02-04T10:22:59.026Z,8.50
2024-02-04T10:25:29.164Z,6.33
2024-02-04T10:27:59.442Z,17.13
2024-02-04T10:30:32.610Z,16.07
2024-02-04T10:33:03.817Z,8.33
2024-02-04T10:35:34.124Z,8.47
2024-02-04T10:38:04.227Z,10.93
2024-02-04T10:40:34.303Z,8.67
2024-02-04T10:43:08.738Z,11.00
2024-02-04T10:45:46.818Z,8.63
2024-02-04T10:48:23.356Z,8.50
2024-02-04T10:50:55.330Z,9.07
2024-02-04T10:53:26.597Z,5.10
2024-02-04T10:56:02.476Z,4.50
2024-02-04T10:58:33.903Z,5.90
2024-02-04T11:01:07.753Z,7.47
2024-02-04T11:03:38.378Z,8.67
2024-02-04T11:06:09.141Z,8.37
2024-02-04T11:08:39.766Z,13.33
2024-02-04T11:11:09.962Z,14.90
2024-02-04T11:13:42.391Z,8.10
2024-02-04T11:16:35.383Z,8.17
2024-02-04T11:19:24.745Z,7.17
2024-02-04T11:22:27.545Z,9.10
2024-02-04T11:25:24.737Z,11.20
2024-02-04T11:27:55.997Z,9.97
2024-02-04T11:30:27.110Z,8.60
2024-02-04T11:33:03.981Z,4.57
2024-02-04T11:35:34.977Z,5.50
2024-02-04T11:38:06.647Z,14.67
2024-02-04T11:40:39.836Z,6.53
2024-02-04T11:43:10.891Z,9.77
2024-02-04T11:45:44.966Z,8.70
2024-02-04T11:48:18.282Z,12.10
2024-02-04T11:50:57.000Z,6.83
2024-02-04T11:53:30.180Z,5.10
2024-02-04T11:56:01.161Z,14.70
2024-02-04T11:58:33.370Z,8.73
2024-02-04T12:01:05.548Z,5.80
2024-02-04T12:03:38.395Z,10.87
2024-02-04T12:06:10.223Z,5.80
2024-02-04T12:08:41.710Z,10.80
2024-02-04T12:11:13.147Z,9.03
2024-02-04T12:13:44.325Z,5.33
2024-02-04T12:16:14.409Z,8.40
2024-02-04T12:18:54.666Z,3.63
2024-02-04T12:21:25.069Z,5.93
2024-02-04T12:23:55.321Z,3.40
2024-02-04T12:26:26.371Z,4.07
2024-02-04T12:28:56.875Z,3.73
2024-02-04T12:31:30.433Z,5.17
2024-02-04T12:34:04.606Z,4.63
2024-02-04T12:36:35.841Z,9.73
2024-02-04T12:39:11.066Z,5.70
2024-02-04T12:41:41.278Z,5.70
2024-02-04T12:44:11.491Z,5.10
2024-02-04T12:46:41.608Z,3.53
2024-02-04T12:49:15.341Z,6.60
2024-02-04T12:51:45.725Z,6.27
2024-02-04T12:54:16.597Z,7.60
2024-02-04T12:56:49.469Z,4.73
2024-02-04T12:59:30.098Z,5.10
2024-02-04T13:02:02.923Z,2.70
2024-02-04T13:04:41.349Z,2.23
2024-02-04T13:07:14.461Z,4.23
2024-02-04T13:09:45.167Z,3.43
2024-02-04T13:12:18.793Z,3.83
2024-02-04T13:14:49.724Z,8.50
2024-02-04T13:17:19.849Z,5.57
2024-02-04T13:19:52.664Z,7.70
2024-02-04T13:22:22.962Z,9.23
2024-02-04T13:24:53.131Z,7.20
2024-02-04T13:27:23.487Z,4.40
2024-02-04T13:29:53.640Z,3.60
2024-02-04T13:32:23.839Z,6.77
2024-02-04T13:35:05.741Z,5.73
2024-02-04T13:37:47.994Z,8.10
2024-02-04T13:40:19.504Z,3.10
2024-02-04T13:42:50.420Z,8.27
2024-02-04T13:45:21.065Z,4.00
2024-02-04T13:47:51.408Z,4.80
2024-02-04T13:50:24.323Z,3.70
2024-02-04T13:52:54.539Z,5.47
2024-02-04T13:55:24.829Z,4.90
2024-02-04T13:57:55.008Z,5.10
2024-02-04T14:00:25.112Z,3.10
2024-02-04T14:02:55.238Z,5.17
2024-02-04T14:05:28.134Z,8.23
2024-02-04T14:07:59.986Z,4.73
2024-02-04T14:10:30.585Z,4.30
2024-02-04T14:13:00.713Z,5.93
2024-02-04T14:15:30.844Z,9.63
2024-02-04T14:18:01.304Z,14.77
2024-02-04T14:20:34.678Z,9.37
2024-02-04T14:23:04.809Z,5.63
2024-02-04T14:25:35.015Z,7.67
2024-02-04T14:28:06.220Z,8.53
2024-02-04T14:30:36.458Z,8.40
2024-02-04T14:33:07.197Z,8.63
2024-02-04T14:35:40.032Z,3.70
2024-02-04T14:38:10.152Z,4.70
2024-02-04T14:40:40.201Z,5.40
2024-02-04T14:43:10.820Z,6.27
2024-02-04T14:45:41.014Z,2.77
2024-02-04T14:48:11.539Z,3.10
2024-02-04T14:50:44.226Z,4.53
2024-02-04T14:53:14.318Z,3.30
2024-02-04T14:55:44.863Z,6.87
2024-02-04T14:58:15.244Z,6.20
2024-02-04T15:00:45.426Z,4.17
2024-02-04T15:03:15.640Z,7.17
2024-02-04T15:05:48.506Z,2.30
2024-02-04T15:08:18.632Z,8.30
2024-02-04T15:10:49.048Z,3.63
2024-02-04T15:13:19.876Z,3.43
2024-02-04T15:15:50.647Z,8.40
2024-02-04T15:18:21.322Z,8.23
2024-02-04T15:20:54.726Z,4.37
2024-02-04T15:23:25.797Z,3.07
2024-02-04T15:25:57.200Z,7.73
2024-02-04T15:28:28.094Z,6.27
2024-02-04T15:30:59.380Z,7.67
2024-02-04T15:33:30.541Z,4.47
2024-02-04T15:36:03.645Z,6.10
2024-02-04T15:38:33.771Z,5.33
2024-02-04T15:41:03.852Z,3.73
2024-02-04T15:43:33.963Z,4.80
2024-02-04T15:46:11.672Z,2.60
2024-02-04T15:48:45.522Z,5.70
2024-02-04T15:51:19.159Z,3.30
2024-02-04T15:53:50.124Z,3.30
2024-02-04T15:56:25.581Z,1.77
2024-02-04T15:59:07.267Z,8.30
2024-02-04T16:01:38.679Z,9.90
2024-02-04T16:04:09.662Z,6.17
2024-02-04T16:06:43.394Z,7.90
2024-02-04T16:09:14.735Z,6.87
2024-02-04T16:11:58.246Z,1.87
2024-02-04T16:14:30.126Z,4.00
2024-02-04T16:17:06.876Z,3.70
2024-02-04T16:19:38.111Z,5.87
2024-02-04T16:22:11.174Z,9.37
2024-02-04T16:24:42.135Z,6.43
2024-02-04T16:27:12.307Z,3.57
2024-02-04T16:29:43.110Z,6.20
2024-02-04T16:32:15.608Z,12.33
2024-02-04T16:34:46.044Z,9.00
2024-02-04T16:37:18.891Z,5.17
2024-02-04T16:39:49.020Z,4.20
2024-02-04T16:42:19.105Z,10.57
2024-02-04T16:44:52.662Z,4.37
2024-02-04T16:47:22.912Z,5.17
2024-02-04T16:49:53.088Z,10.93
2024-02-04T16:52:26.790Z,3.97
2024-02-04T16:54:58.106Z,4.60
2024-02-04T16:57:28.173Z,8.00
2024-02-04T16:59:58.201Z,4.57
2024-02-04T17:02:29.161Z,3.53
2024-02-04T17:05:00.949Z,2.70
2024-02-04T17:07:34.560Z,6.53
2024-02-04T17:10:05.208Z,6.33
2024-02-04T17:12:36.166Z,2.77
2024-02-04T17:15:07.196Z,5.33
2024-02-04T17:17:37.769Z,4.63
2024-02-04T17:20:12.996Z,2.97
2024-02-04T17:22:48.353Z,7.40
2024-02-04T17:25:20.353Z,9.10
2024-02-04T17:27:52.533Z,3.67
2024-02-04T17:30:23.588Z,4.10
2024-02-04T17:32:55.507Z,4.03
2024-02-04T17:35:27.496Z,2.20
2024-02-04T17:38:00.631Z,3.83
2024-02-04T17:40:33.012Z,3.83
2024-02-04T17:43:03.453Z,4.30
2024-02-04T17:45:34.128Z,8.50
2024-02-04T17:48:05.097Z,2.20
2024-02-04T17:50:35.794Z,3.00
2024-02-04T17:53:09.207Z,3.13
2024-02-04T17:55:40.356Z,2.40
2024-02-04T17:58:10.607Z,3.10
2024-02-04T18:00:42.304Z,2.30
2024-02-04T18:03:12.446Z,5.80
2024-02-04T18:05:44.732Z,4.30
2024-02-04T18:08:17.588Z,3.10
2024-02-04T18:10:50.555Z,5.67
2024-02-04T18:13:20.793Z,3.10
2024-02-04T18:15:55.115Z,3.60
2024-02-04T18:18:25.392Z,3.60
2024-02-04T18:20:57.564Z,5.73
2024-02-04T18:23:30.858Z,5.57
2024-02-04T18:26:00.898Z,5.67
2024-02-04T18:28:30.983Z,6.77
2024-02-04T18:31:01.083Z,4.73
2024-02-04T18:33:31.491Z,5.93
2024-02-04T18:36:01.681Z,3.60
2024-02-04T18:38:34.400Z,5.17
2024-02-04T18:41:04.945Z,5.53
2024-02-04T18:43:35.011Z,7.23
2024-02-04T18:46:06.544Z,7.10
2024-02-04T18:48:36.805Z,5.90
2024-02-04T18:51:07.655Z,5.80
2024-02-04T18:53:40.551Z,5.23
2024-02-04T18:56:16.565Z,4.67
2024-02-04T18:58:51.344Z,4.20
2024-02-04T19:01:24.821Z,5.20
2024-02-04T19:03:55.927Z,4.80
2024-02-04T19:06:30.202Z,5.93
2024-02-04T19:09:04.434Z,4.37
2024-02-04T19:11:36.644Z,6.43
2024-02-04T19:14:06.885Z,5.10
2024-02-04T19:16:36.965Z,7.43
2024-02-04T19:19:07.366Z,4.93
2024-02-04T19:21:37.585Z,7.77
2024-02-04T19:24:10.776Z,4.73
2024-02-04T19:26:41.006Z,6.30
2024-02-04T19:29:11.102Z,4.43
2024-02-04T19:31:42.006Z,5.67
2024-02-04T19:34:15.214Z,4.73
2024-02-04T19:36:48.148Z,5.60
2024-02-04T19:39:21.238Z,4.30
2024-02-04T19:41:51.557Z,4.60
2024-02-04T19:44:22.564Z,4.47
2024-02-04T19:46:52.937Z,4.27
2024-02-04T19:49:29.105Z,3.70
2024-02-04T19:52:02.069Z,5.03
2024-02-04T19:54:35.421Z,6.57
2024-02-04T19:57:05.545Z,3.40
2024-02-04T19:59:35.688Z,2.90
2024-02-04T20:02:05.853Z,2.37
2024-02-04T20:04:37.174Z,4.00
2024-02-04T20:07:08.613Z,3.93
2024-02-04T20:09:41.327Z,3.47
2024-02-04T20:12:11.790Z,3.33
2024-02-04T20:14:42.057Z,3.60
2024-02-04T20:17:12.217Z,3.13
2024-02-04T20:19:42.926Z,7.40
2024-02-04T20:22:13.305Z,4.27
2024-02-04T20:24:46.116Z,2.83
2024-02-04T20:27:16.338Z,6.97
2024-02-04T20:29:47.473Z,2.60
2024-02-04T20:32:17.648Z,5.20
2024-02-04T20:34:47.870Z,5.43
2024-02-04T20:37:18.695Z,3.87
2024-02-04T20:39:51.441Z,5.57
2024-02-04T20:42:21.544Z,7.23
2024-02-04T20:44:51.670Z,5.00
2024-02-04T20:47:21.785Z,8.50
2024-02-04T20:49:52.281Z,8.00
2024-02-04T20:52:22.883Z,5.73
2024-02-04T20:54:55.741Z,8.60
2024-02-04T20:57:25.858Z,9.10
2024-02-04T20:59:55.973Z,7.30
2024-02-04T21:02:26.055Z,7.37
2024-02-04T21:04:56.203Z,7.70
2024-02-04T21:07:26.398Z,9.90
2024-02-04T21:09:59.570Z,10.77
2024-02-04T21:12:30.720Z,11.27
2024-02-04T21:15:04.346Z,10.57
2024-02-04T21:17:35.994Z,12.73
2024-02-04T21:20:08.139Z,12.63
2024-02-04T21:22:38.881Z,11.00
2024-02-04T21:25:13.900Z,11.27
2024-02-04T21:27:44.557Z,8.83
2024-02-04T21:30:14.972Z,9.53
2024-02-04T21:32:49.806Z,11.07
2024-02-04T21:35:20.113Z,14.47
2024-02-04T21:37:51.483Z,11.87
2024-02-04T21:40:26.983Z,9.83
2024-02-04T21:42:57.160Z,9.70
2024-02-04T21:45:27.343Z,8.40
2024-02-04T21:47:57.436Z,9.20
2024-02-04T21:50:27.596Z,9.17
2024-02-04T21:52:58.712Z,8.33
2024-02-04T21:55:31.467Z,10.43
2024-02-04T21:58:03.709Z,9.70
2024-02-04T22:00:36.036Z,15.17
2024-02-04T22:03:07.055Z,6.90
2024-02-04T22:05:37.961Z,7.47
2024-02-04T22:08:09.685Z,8.90
2024-02-04T22:10:42.477Z,8.87
2024-02-04T22:13:12.694Z,5.80
2024-02-04T22:15:42.847Z,8.43
2024-02-04T22:18:13.010Z,10.77
2024-02-04T22:20:43.196Z,10.60
2024-02-04T22:23:14.340Z,6.50
2024-02-04T22:25:49.601Z,11.97
2024-02-04T22:28:20.243Z,7.13
2024-02-04T22:30:50.405Z,5.97
2024-02-04T22:33:20.764Z,7.00
2024-02-04T22:35:50.929Z,13.80
2024-02-04T22:38:21.075Z,8.00
2024-02-04T22:40:53.737Z,6.57
2024-02-04T22:43:23.999Z,8.30
2024-02-04T22:45:54.421Z,7.30
2024-02-04T22:48:24.599Z,9.33
2024-02-04T22:50:54.703Z,10.10
2024-02-04T22:53:24.923Z,8.87
2024-02-04T22:55:57.883Z,7.67
2024-02-04T22:58:29.040Z,11.43
2024-02-04T23:00:59.518Z,10.70
2024-02-04T23:03:30.155Z,14.67
2024-02-04T23:06:00.241Z,16.50
2024-02-04T23:08:30.492Z,11.47
2024-02-04T23:11:03.943Z,16.13
2024-02-04T23:13:34.037Z,8.77
2024-02-04T23:16:04.389Z,15.23
2024-02-04T23:18:34.528Z,11.93
2024-02-04T23:21:07.418Z,11.07
2024-02-04T23:23:37.529Z,11.70
2024-02-04T23:26:10.891Z,17.27
2024-02-04T23:28:40.946Z,16.47
2024-02-04T23:31:11.244Z,14.97
2024-02-04T23:33:41.389Z,16.33
2024-02-04T23:36:12.205Z,10.73
2024-02-04T23:38:42.396Z,9.10
2024-02-04T23:41:15.146Z,6.40
2024-02-04T23:43:45.328Z,9.60
2024-02-04T23:46:16.155Z,7.63
2024-02-04T23:48:46.468Z,12.03
2024-02-04T23:51:16.893Z,11.83
2024-02-04T23:53:47.024Z,11.50
2024-02-04T23:56:19.966Z,8.37
2024-02-04T23:58:50.102Z,10.90
